createdAt,value
2019-02-04T00:02:44.934Z,15.20
2019-02-04T00:07:47.404Z,17.80
2019-02-04T00:12:49.867Z,18.63
2019-02-04T00:17:52.358Z,20.47
2019-02-04T00:22:54.800Z,21.03
2019-02-04T00:27:57.251Z,20.80
2019-02-04T00:32:59.705Z,17.87
2019-02-04T00:38:02.143Z,19.17
2019-02-04T00:43:04.613Z,17.83
2019-02-04T00:48:07.080Z,19.67
2019-02-04T00:53:09.526Z,23.43
2019-02-04T00:58:11.974Z,26.67
2019-02-04T01:03:14.416Z,27.90
2019-02-04T01:08:16.862Z,28.83
2019-02-04T01:13:19.302Z,25.00
2019-02-04T01:18:21.741Z,26.20
2019-02-04T01:23:24.174Z,24.57
2019-02-04T01:28:26.624Z,30.83
2019-02-04T01:33:29.069Z,20.87
2019-02-04T01:38:31.516Z,24.63
2019-02-04T01:43:33.974Z,26.87
2019-02-04T01:48:36.403Z,23.40
2019-02-04T01:53:38.846Z,24.67
2019-02-04T01:58:41.289Z,24.63
2019-02-04T02:03:43.745Z,24.70
2019-02-04T02:08:46.190Z,26.60
2019-02-04T02:13:48.644Z,20.77
2019-02-04T02:18:51.082Z,24.70
2019-02-04T02:23:53.526Z,25.13
2019-02-04T02:28:55.980Z,22.90
2019-02-04T02:33:58.421Z,26.40
2019-02-04T02:39:00.873Z,21.90
2019-02-04T02:44:03.334Z,23.63
2019-02-04T02:49:05.756Z,21.53
2019-02-04T02:54:08.197Z,21.33
2019-02-04T02:59:10.636Z,23.50
2019-02-04T03:04:13.093Z,26.27
2019-02-04T03:09:15.542Z,25.43
2019-02-04T03:14:17.995Z,25.60
2019-02-04T03:19:20.422Z,27.90
2019-02-04T03:24:22.870Z,24.50
2019-02-04T03:29:25.307Z,27.13
2019-02-04T03:34:27.756Z,26.17
2019-02-04T03:39:30.196Z,25.20
2019-02-04T03:44:32.645Z,27.87
2019-02-04T03:49:35.083Z,26.37
2019-02-04T03:54:37.531Z,28.67
2019-02-04T03:59:39.969Z,27.87
2019-02-04T04:04:42.455Z,27.47
2019-02-04T04:09:44.901Z,26.03
2019-02-04T04:14:47.340Z,29.47
2019-02-04T04:19:49.780Z,26.43
2019-02-04T04:24:52.235Z,27.20
2019-02-04T04:29:54.674Z,25.40
2019-02-04T04:34:57.114Z,26.53
2019-02-04T04:39:59.557Z,30.33
2019-02-04T04:45:02.011Z,24.60
2019-02-04T04:50:04.459Z,31.30
2019-02-04T04:55:06.904Z,33.10
2019-02-04T05:00:09.353Z,28.00
2019-02-04T05:05:11.784Z,31.57
2019-02-04T05:10:14.248Z,29.50
2019-02-04T05:15:25.912Z,33.10
2019-02-04T05:20:28.447Z,31.77
2019-02-04T05:25:30.880Z,34.37
2019-02-04T05:30:33.315Z,28.33
2019-02-04T05:35:35.756Z,30.23
2019-02-04T05:40:38.209Z,25.97
2019-02-04T05:45:40.682Z,27.03
2019-02-04T05:50:43.137Z,32.63
2019-02-04T05:55:45.577Z,27.53
2019-02-04T06:00:48.076Z,31.43
2019-02-04T06:05:50.479Z,29.17
2019-02-04T06:10:52.942Z,28.70
2019-02-04T06:15:55.396Z,31.97
2019-02-04T06:20:57.851Z,35.37
2019-02-04T06:26:00.344Z,34.20
2019-02-04T06:31:02.770Z,35.30
2019-02-04T06:36:05.385Z,34.33
2019-02-04T06:41:07.850Z,31.67
2019-02-04T06:46:10.274Z,42.10
2019-02-04T06:51:12.723Z,37.60
2019-02-04T06:56:15.200Z,36.80
2019-02-04T07:01:17.652Z,34.97
2019-02-04T07:06:20.109Z,31.60
2019-02-04T07:11:22.562Z,38.40
2019-02-04T07:16:25.104Z,44.90
2019-02-04T07:21:27.595Z,37.53
2019-02-04T07:26:30.034Z,41.13
2019-02-04T07:31:32.474Z,40.80
2019-02-04T07:36:34.915Z,48.70
2019-02-04T07:41:37.360Z,39.47
2019-02-04T07:46:39.823Z,49.93
2019-02-04T07:51:42.279Z,47.17
2019-02-04T07:56:44.823Z,39.00
2019-02-04T08:01:47.176Z,39.40
2019-02-04T08:06:49.624Z,31.07
2019-02-04T08:11:52.070Z,32.63
2019-02-04T08:16:54.609Z,34.30
2019-02-04T08:21:57.053Z,26.67
2019-02-04T08:26:59.500Z,28.43
2019-02-04T08:32:01.954Z,25.87
2019-02-04T08:37:04.412Z,26.10
2019-02-04T08:42:06.857Z,28.17
2019-02-04T08:47:09.363Z,24.10
2019-02-04T08:52:11.814Z,23.30
2019-02-04T08:57:14.283Z,24.07
2019-02-04T09:02:16.744Z,19.77
2019-02-04T09:07:19.137Z,29.03
2019-02-04T09:12:21.579Z,25.70
2019-02-04T09:17:24.041Z,25.13
2019-02-04T09:22:26.488Z,22.10
2019-02-04T09:27:28.937Z,19.57
2019-02-04T09:32:31.385Z,18.60
2019-02-04T09:37:33.835Z,20.97
2019-02-04T09:42:36.282Z,20.80
2019-02-04T09:47:38.744Z,21.30
2019-02-04T09:52:41.312Z,25.13
2019-02-04T09:57:43.662Z,21.13
2019-02-04T10:02:46.113Z,20.93
2019-02-04T10:07:48.557Z,23.47
2019-02-04T10:12:52.554Z,27.87
2019-02-04T10:17:53.453Z,22.57
2019-02-04T10:22:55.939Z,22.60
2019-02-04T10:27:58.352Z,20.47
2019-02-04T10:33:00.813Z,24.70
2019-02-04T10:38:03.314Z,24.70
2019-02-04T10:43:05.745Z,24.33
2019-02-04T10:48:08.306Z,23.77
2019-02-04T10:53:10.672Z,23.63
2019-02-04T10:58:13.184Z,21.73
2019-02-04T11:03:15.662Z,30.13
2019-02-04T11:08:18.080Z,21.27
2019-02-04T11:13:20.522Z,18.90
2019-02-04T11:18:22.988Z,20.43
2019-02-04T11:23:25.388Z,23.13
2019-02-04T11:28:27.858Z,24.70
2019-02-04T11:33:30.328Z,21.83
2019-02-04T11:38:32.791Z,23.33
2019-02-04T11:43:35.277Z,22.37
2019-02-04T11:48:37.681Z,18.70
2019-02-04T11:53:40.121Z,26.33
2019-02-04T11:58:42.591Z,22.67
2019-02-04T12:03:45.022Z,24.00
2019-02-04T12:08:47.464Z,19.43
2019-02-04T12:13:49.896Z,11.90
2019-02-04T12:18:52.338Z,12.97
2019-02-04T12:23:54.781Z,12.67
2019-02-04T12:28:57.883Z,12.73
2019-02-04T12:33:59.680Z,8.07
2019-02-04T12:39:02.121Z,12.33
2019-02-04T12:44:04.603Z,7.23
2019-02-04T12:49:07.039Z,10.30
2019-02-04T12:54:09.472Z,7.47
2019-02-04T12:59:11.918Z,10.07
2019-02-04T13:04:14.462Z,10.50
2019-02-04T13:09:16.934Z,10.10
2019-02-04T13:14:19.389Z,8.00
2019-02-04T13:19:21.841Z,6.47
2019-02-04T13:24:24.300Z,5.83
2019-02-04T13:29:26.752Z,8.47
2019-02-04T13:34:29.195Z,5.93
2019-02-04T13:39:31.657Z,7.80
2019-02-04T13:44:34.122Z,6.93
2019-02-04T13:49:36.557Z,7.53
2019-02-04T13:54:38.991Z,9.33
2019-02-04T13:59:41.430Z,8.80
2019-02-04T14:04:43.872Z,8.30
2019-02-04T14:09:46.312Z,9.47
2019-02-04T14:14:48.741Z,9.70
2019-02-04T14:19:51.206Z,12.53
2019-02-04T14:24:53.676Z,12.50
2019-02-04T14:29:56.127Z,9.27
2019-02-04T14:34:58.597Z,8.83
2019-02-04T14:40:01.036Z,11.57
2019-02-04T14:45:12.544Z,10.63
2019-02-04T14:50:36.443Z,9.60
2019-02-04T14:55:53.868Z,11.17
2019-02-04T15:01:20.947Z,11.33
2019-02-04T15:06:26.530Z,12.20
2019-02-04T15:11:31.722Z,12.27
2019-02-04T15:16:43.270Z,9.40
2019-02-04T15:21:57.662Z,9.17
2019-02-04T15:27:20.982Z,11.77
2019-02-04T15:32:29.751Z,10.73
2019-02-04T15:37:50.257Z,9.07
2019-02-04T15:43:23.494Z,11.70
2019-02-04T15:48:26.036Z,11.17
2019-02-04T15:53:28.492Z,13.00
2019-02-04T15:58:30.973Z,13.73
2019-02-04T16:03:33.453Z,12.80
2019-02-04T16:08:35.893Z,11.60
2019-02-04T16:13:38.337Z,12.17
2019-02-04T16:18:40.791Z,15.03
2019-02-04T16:23:43.275Z,12.00
2019-02-04T16:28:45.722Z,12.07
2019-02-04T16:33:48.173Z,11.33
2019-02-04T16:38:50.616Z,15.47
2019-02-04T16:43:53.098Z,13.67
2019-02-04T16:48:55.550Z,14.93
2019-02-04T16:53:57.991Z,14.70
2019-02-04T16:59:00.449Z,19.40
2019-02-04T17:04:02.895Z,17.30
2019-02-04T17:09:05.353Z,28.37
2019-02-04T17:14:07.828Z,45.37
2019-02-04T17:19:10.299Z,83.53
2019-02-04T17:24:12.747Z,33.10
2019-02-04T17:29:15.295Z,16.80
2019-02-04T17:34:17.748Z,25.07
2019-02-04T17:39:20.360Z,19.83
2019-02-04T17:44:22.826Z,39.77
2019-02-04T17:49:25.284Z,25.13
2019-02-04T17:54:27.721Z,25.63
2019-02-04T17:59:30.174Z,22.27
2019-02-04T18:04:32.621Z,17.80
2019-02-04T18:09:35.072Z,22.07
2019-02-04T18:14:37.734Z,20.53
2019-02-04T18:19:40.221Z,21.70
2019-02-04T18:24:42.656Z,25.30
2019-02-04T18:29:45.111Z,25.87
2019-02-04T18:34:47.561Z,23.90
2019-02-04T18:39:50.002Z,23.17
2019-02-04T18:44:52.473Z,27.37
2019-02-04T18:49:54.919Z,30.43
2019-02-04T18:54:57.357Z,31.50
2019-02-04T18:59:59.816Z,20.47
2019-02-04T19:05:02.308Z,21.30
2019-02-04T19:10:04.763Z,17.57
2019-02-04T19:15:07.217Z,18.43
2019-02-04T19:20:12.417Z,23.30
2019-02-04T19:25:17.825Z,22.50
2019-02-04T19:30:26.092Z,29.47
2019-02-04T19:35:28.559Z,32.23
2019-02-04T19:40:31.027Z,21.63
2019-02-04T19:45:33.486Z,21.63
2019-02-04T19:50:35.970Z,25.47
2019-02-04T19:55:38.451Z,30.23
2019-02-04T20:00:40.964Z,23.10
2019-02-04T20:05:43.414Z,30.07
2019-02-04T20:10:45.873Z,23.83
2019-02-04T20:15:48.344Z,21.37
2019-02-04T20:20:50.844Z,21.60
2019-02-04T20:25:53.322Z,24.03
2019-02-04T20:30:55.797Z,25.33
2019-02-04T20:35:58.266Z,21.97
2019-02-04T20:41:00.708Z,29.17
2019-02-04T20:46:03.178Z,23.43
2019-02-04T20:51:05.649Z,24.30
2019-02-04T20:56:08.139Z,24.13
2019-02-04T21:01:10.784Z,23.63
2019-02-04T21:06:13.081Z,21.23
2019-02-04T21:11:15.634Z,24.27
2019-02-04T21:16:18.014Z,27.37
2019-02-04T21:21:20.482Z,24.03
2019-02-04T21:26:22.996Z,29.67
2019-02-04T21:31:25.419Z,32.10
2019-02-04T21:36:27.886Z,26.20
2019-02-04T21:41:30.332Z,25.20
2019-02-04T21:46:32.777Z,23.17
2019-02-04T21:51:35.221Z,22.40
2019-02-04T21:56:37.679Z,25.37
2019-02-04T22:01:40.180Z,30.83
2019-02-04T22:06:42.625Z,28.57
2019-02-04T22:11:45.070Z,32.13
2019-02-04T22:16:47.535Z,25.93
2019-02-04T22:21:49.984Z,25.77
2019-02-04T22:26:52.455Z,22.63
2019-02-04T22:31:54.938Z,25.00
2019-02-04T22:36:57.344Z,23.53
2019-02-04T22:41:59.824Z,23.17
2019-02-04T22:47:02.269Z,22.73
2019-02-04T22:52:04.705Z,25.00
2019-02-04T22:57:07.149Z,22.00
2019-02-04T23:02:09.609Z,23.27
2019-02-04T23:07:12.134Z,24.33
2019-02-04T23:12:14.529Z,25.17
2019-02-04T23:17:16.987Z,23.37
2019-02-04T23:22:19.431Z,24.73
2019-02-04T23:27:21.896Z,26.53
2019-02-04T23:32:24.366Z,25.07
2019-02-04T23:37:27.050Z,28.00
2019-02-04T23:42:29.412Z,26.50
2019-02-04T23:47:31.846Z,24.73
2019-02-04T23:52:34.283Z,27.23
2019-02-04T23:57:36.753Z,26.03
